Watton, MI (49970)

11:13 AM EDT on September 05, 2015 (GMT -0400)
MesoWest | | Change Station
CLOSE
Current Station
Personal Weather Station
Location: Kenton, MI
Elevation: 1521 ft
Nearby Weather Stations

Elev 1521 ft 46.48 °N, 88.99 °W | Updated 33 minutes ago

Overcast
Overcast
75 °F
Feels Like 75 °F
N
3
Wind Variable Wind from South
Gusts 9.0 mph

Today
High -- | Low -- °F
--% Chance of Precip.
Yesterday
High -- | Low -- °F
Precip. -- in
7:19 AM 8:26 PM
Waning Gibbous, 48% visible
Pressure 30.09 in
Visibility 7.0 miles
Clouds Overcast 600 ft
Heat Index 75 °F
Dew Point 70 °F
Humidity 83%
Rainfall in
Snow Depth Not available.
UV 1 out of 12
Pollen 8.90 out of 12
Air Quality Not available.
Flu Activity Not available.
METAR KLNL 051455Z AUTO 20003KT 7SM OVC006 22/19 A3009 RMK AO2 T02210192
Pressure 30.09 in
Visibility 7.0 miles
Clouds Overcast 600 ft
Heat Index 75 °F
Dew Point 70 °F
Humidity 83%
Rainfall in
Snow Depth Not available.
UV 1 out of 12
Pollen 8.90 out of 12
Air Quality Not available.
Flu Activity Not available.
METAR KLNL 051455Z AUTO 20003KT 7SM OVC006 22/19 A3009 RMK AO2 T02210192

10-Day Weather Forecast

×

Almanac

Astronomy

Sep. 05, 2015 Rise Set
Actual Time
Civil Twilight
Nautical Twilight
Astronomical Twilight
Moon
Length of Visible Light
Length of Day
Tomorrow will be .
, % of the Moon is Illuminated

Today's Extremes

State Highs State Lows

Community

WunderPhotos

Upload Photos

1,852,480 photos uploaded!

WunderBlogs® & News

Nearby

Air Quality

  Air Quality AQ Index Pollutant
Not available.

Snow Depth

Station Depth Elevation

Earthquake Activity

City Distance Mag. Time & Date
Minimum magnitude displayed is 2.5.

Coastal Water Temperatures

Place Temperature

Stations

Nearby Weather Stations

Station Location Temp. Windchill Dew Point Humidity Wind Precip. Elev Updated Type